Terminal Aerodrome Forecast
Issued by NWS

Home | Current Version | Previous Version | Text Only | Print | Product List | Glossary On
Versions: 1 2 3 4 5 6 7 8 9 10 11 12 13 14 15 16 17 18 19 20 21 22 23 24 25 26 27 28 29 30 31 32 33 34
000
FTUS41 KPBZ 310221 AAB
TAFAGC
TAF AMD
KAGC 310221Z 3102/3124 00000KT 3SM BR VCSH SCT005 BKN070
      TEMPO 3102/3104 2SM BR BKN005
     FM310400 00000KT 1SM BR BKN005
     FM310700 00000KT 3/4SM BR BKN004
     FM311300 24003KT 3SM BR BKN010
     FM311500 22005KT P6SM BKN020
     FM311700 23005KT P6SM VCSH BKN040=

USA.gov is the U.S. government's official web portal to all federal, state and local government web resources and services.